Time;durP1;ratioP1;P1;durP2;ratioP2;P2;SDS_P1;SDS_P2;PMS_P1;PMS_P2;Temp;Humidity;BMP_temperature;BMP_pressure;BME280_temperature;BME280_humidity;BME280_pressure;Samples;Min_cycle;Max_cycle;Signal;HPM_P1;HPM_P2
2023/07/23 00:01:20;;;;;;;10.27;4.43;;;;;;;-144.48;100.00;62369.91;5040311;28;20043;-64
2023/07/23 00:03:46;;;;;;;8.55;3.42;;;;;;;-144.48;100.00;62369.91;5042055;28;20147;-68
2023/07/23 00:06:11;;;;;;;6.90;3.83;;;;;;;-144.48;100.00;62369.91;5039593;28;20021;-65
2023/07/23 00:08:37;;;;;;;7.03;3.50;;;;;;;-144.48;100.00;62369.91;5029887;28;20104;-68
2023/07/23 00:11:02;;;;;;;11.70;3.55;;;;;;;-144.48;100.00;62369.91;5034956;28;20025;-68
2023/07/23 00:13:27;;;;;;;5.53;2.92;;;;;;;-144.48;100.00;62369.91;5040902;28;20436;-67
2023/07/23 00:15:53;;;;;;;8.13;3.35;;;;;;;-144.48;100.00;62369.91;5039531;28;20515;-64
2023/07/23 00:18:18;;;;;;;7.90;3.00;;;;;;;-144.48;100.00;62369.91;5034206;28;20527;-67
2023/07/23 00:20:43;;;;;;;9.55;3.10;;;;;;;-144.48;100.00;62369.91;5036351;28;20102;-66
2023/07/23 00:23:09;;;;;;;6.13;3.00;;;;;;;-144.48;100.00;62369.91;5041404;28;20018;-65
2023/07/23 00:25:34;;;;;;;8.27;3.08;;;;;;;-144.48;100.00;62369.91;5038458;28;20029;-65
2023/07/23 00:28:00;;;;;;;6.45;2.92;;;;;;;-144.48;100.00;62369.91;5034439;28;20383;-62
2023/07/23 00:30:25;;;;;;;6.18;3.05;;;;;;;-144.48;100.00;62369.91;5036429;28;20502;-67
2023/07/23 00:32:51;;;;;;;4.88;2.85;;;;;;;-144.48;100.00;62369.91;5029404;28;20053;-65
2023/07/23 00:35:16;;;;;;;11.68;3.47;;;;;;;-144.48;100.00;62369.91;5030525;28;20033;-67
2023/07/23 00:37:42;;;;;;;6.18;3.35;;;;;;;-144.48;100.00;62369.91;5044594;28;20032;-63
2023/07/23 00:40:08;;;;;;;7.28;3.20;;;;;;;-144.48;100.00;62369.91;5037068;28;20021;-67
2023/07/23 00:42:34;;;;;;;5.53;2.88;;;;;;;-144.48;100.00;62369.91;5023352;28;20044;-67
2023/07/23 00:44:59;;;;;;;10.13;3.22;;;;;;;-144.48;100.00;62369.91;5020214;28;20374;-63
2023/07/23 00:47:25;;;;;;;11.02;3.55;;;;;;;-144.48;100.00;62369.91;5034528;28;20416;-67
2023/07/23 00:49:51;;;;;;;6.90;3.28;;;;;;;-144.48;100.00;62369.91;5047371;28;20478;-67
2023/07/23 00:52:17;;;;;;;6.00;2.90;;;;;;;-144.48;100.00;62369.91;5015924;28;20021;-67
2023/07/23 00:54:42;;;;;;;6.60;3.20;;;;;;;-144.48;100.00;62369.91;5036834;28;20033;-67
2023/07/23 00:57:11;;;;;;;8.02;3.75;;;;;;;-144.48;100.00;62369.91;5040893;28;20037;-65
2023/07/23 00:59:37;;;;;;;10.95;3.35;;;;;;;-144.48;100.00;62369.91;5020562;28;20368;-65
2023/07/23 01:02:03;;;;;;;6.63;3.35;;;;;;;-144.48;100.00;62369.91;5034029;28;20021;-66
2023/07/23 01:04:30;;;;;;;11.90;3.33;;;;;;;-144.48;100.00;62369.91;5037137;28;20076;-62
2023/07/23 01:06:58;;;;;;;8.88;3.28;;;;;;;-144.48;100.00;62369.91;5042516;28;20514;-67
2023/07/23 01:09:25;;;;;;;12.52;3.70;;;;;;;-144.48;100.00;62369.91;5030208;28;20029;-66
2023/07/23 01:11:52;;;;;;;8.65;3.15;;;;;;;-144.48;100.00;62369.91;5031450;28;20033;-64
2023/07/23 01:14:18;;;;;;;6.93;3.22;;;;;;;-144.48;100.00;62369.91;5030447;28;20041;-67
2023/07/23 01:16:43;;;;;;;6.78;3.20;;;;;;;-144.48;100.00;62369.91;5036091;28;20024;-67
2023/07/23 01:19:11;;;;;;;6.97;3.38;;;;;;;-144.48;100.00;62369.91;5039027;28;20501;-64
2023/07/23 01:21:36;;;;;;;6.68;3.22;;;;;;;-144.48;100.00;62369.91;5044334;28;20037;-67
2023/07/23 01:24:01;;;;;;;6.00;3.08;;;;;;;-144.48;100.00;62369.91;5042137;28;20036;-67
2023/07/23 01:26:27;;;;;;;5.85;3.28;;;;;;;-144.48;100.00;62369.91;5037937;28;20028;-66
2023/07/23 01:28:53;;;;;;;5.97;3.25;;;;;;;-144.48;100.00;62369.91;5039451;28;20040;-66
2023/07/23 01:31:19;;;;;;;6.07;3.25;;;;;;;-144.48;100.00;62369.91;5042826;28;20035;-67
2023/07/23 01:33:46;;;;;;;8.13;3.03;;;;;;;-144.48;100.00;62369.91;5029665;28;20108;-67
2023/07/23 01:36:12;;;;;;;14.57;3.58;;;;;;;-144.48;100.00;62369.91;5039075;28;20059;-65
2023/07/23 01:38:37;;;;;;;7.75;3.33;;;;;;;-144.48;100.00;62369.91;5050421;28;20070;-66
2023/07/23 01:41:04;;;;;;;5.80;2.90;;;;;;;-144.48;100.00;62369.91;5037623;28;20024;-66
2023/07/23 01:43:29;;;;;;;5.55;2.92;;;;;;;-144.48;100.00;62369.91;5038569;28;20371;-63
2023/07/23 01:45:55;;;;;;;7.80;3.15;;;;;;;-144.48;100.00;62369.91;5044086;28;20465;-66
2023/07/23 01:48:23;;;;;;;5.22;2.90;;;;;;;-144.48;100.00;62369.91;5042142;28;20107;-66
2023/07/23 01:50:49;;;;;;;12.00;3.15;;;;;;;-144.48;100.00;62369.91;5036997;28;20090;-67
2023/07/23 01:53:15;;;;;;;9.13;3.40;;;;;;;-144.48;100.00;62369.91;5038217;28;20021;-69
2023/07/23 01:55:40;;;;;;;6.95;3.08;;;;;;;-144.48;100.00;62369.91;5030592;28;20092;-66
2023/07/23 01:58:06;;;;;;;10.43;3.58;;;;;;;-144.48;100.00;62369.91;5030497;28;20017;-68
2023/07/23 02:00:31;;;;;;;10.50;3.13;;;;;;;-144.48;100.00;62369.91;5030761;28;20032;-68
2023/07/23 02:02:57;;;;;;;6.82;3.00;;;;;;;-144.48;100.00;62369.91;5012603;28;20071;-67
2023/07/23 02:05:22;;;;;;;8.70;3.30;;;;;;;-144.48;100.00;62369.91;5029217;28;20022;-63
2023/07/23 02:07:47;;;;;;;5.43;3.10;;;;;;;-144.48;100.00;62369.91;5028982;28;20411;-68
2023/07/23 02:10:13;;;;;;;5.10;2.50;;;;;;;-144.48;100.00;62369.91;5012286;28;20125;-64
2023/07/23 02:12:39;;;;;;;8.07;2.90;;;;;;;-144.48;100.00;62369.91;5030843;28;20174;-64
2023/07/23 02:15:05;;;;;;;13.30;3.58;;;;;;;-144.48;100.00;62369.91;5029103;28;20510;-67
2023/07/23 02:17:30;;;;;;;8.73;3.20;;;;;;;-144.48;100.00;62369.91;5029633;28;20488;-67
2023/07/23 02:19:56;;;;;;;6.25;2.97;;;;;;;-144.48;100.00;62369.91;5029752;28;20041;-69
2023/07/23 02:22:21;;;;;;;6.22;3.03;;;;;;;-144.48;100.00;62369.91;5029717;28;20418;-63
2023/07/23 02:24:46;;;;;;;7.82;2.83;;;;;;;-144.48;100.00;62369.91;5030042;28;20431;-67
2023/07/23 02:27:14;;;;;;;8.75;3.17;;;;;;;-144.48;100.00;62369.91;5030728;28;20150;-64
2023/07/23 02:29:39;;;;;;;7.53;3.13;;;;;;;-144.48;100.00;62369.91;5029367;28;20460;-66
2023/07/23 02:32:06;;;;;;;7.85;3.00;;;;;;;-144.48;100.00;62369.91;5030079;28;20041;-68
2023/07/23 02:34:31;;;;;;;5.97;2.63;;;;;;;-144.48;100.00;62369.91;5028088;28;20114;-64
2023/07/23 02:36:57;;;;;;;8.65;3.25;;;;;;;-144.48;100.00;62369.91;5030351;28;20057;-67
2023/07/23 02:39:22;;;;;;;11.63;3.25;;;;;;;-144.48;100.00;62369.91;5030198;28;20022;-65
2023/07/23 02:41:47;;;;;;;13.23;2.85;;;;;;;-144.48;100.00;62369.91;5030511;28;20018;-64
2023/07/23 02:44:13;;;;;;;4.35;2.50;;;;;;;-144.48;100.00;62369.91;5029336;28;20037;-69
2023/07/23 02:46:39;;;;;;;7.60;2.88;;;;;;;-144.48;100.00;62369.91;5030744;28;20040;-63
2023/07/23 02:49:05;;;;;;;7.10;2.70;;;;;;;-144.48;100.00;62369.91;5016239;28;20191;-67
2023/07/23 02:51:30;;;;;;;6.20;3.28;;;;;;;-144.48;100.00;62369.91;5039354;28;20268;-65
2023/07/23 02:53:57;;;;;;;5.70;2.63;;;;;;;-144.48;100.00;62369.91;5043292;28;20029;-66
2023/07/23 02:56:22;;;;;;;5.55;3.13;;;;;;;-144.48;100.00;62369.91;5023797;28;20566;-67
2023/07/23 02:58:48;;;;;;;6.35;2.92;;;;;;;-144.48;100.00;62369.91;5036616;28;20029;-63
2023/07/23 03:01:13;;;;;;;7.93;3.05;;;;;;;-144.48;100.00;62369.91;5022024;28;20455;-67
2023/07/23 03:03:39;;;;;;;6.18;2.83;;;;;;;-144.48;100.00;62369.91;5042291;28;20028;-66
2023/07/23 03:06:08;;;;;;;9.40;2.90;;;;;;;-144.48;100.00;62369.91;5039670;28;20025;-67
2023/07/23 03:08:34;;;;;;;13.23;5.85;;;;;;;-144.48;100.00;62369.91;5033019;28;20083;-67
2023/07/23 03:10:59;;;;;;;15.57;6.50;;;;;;;-144.48;100.00;62369.91;5035390;28;20475;-66
2023/07/23 03:13:25;;;;;;;15.20;4.60;;;;;;;-144.48;100.00;62369.91;5041918;28;20152;-65
2023/07/23 03:15:50;;;;;;;11.20;3.95;;;;;;;-144.48;100.00;62369.91;5039283;28;20055;-63
2023/07/23 03:18:15;;;;;;;8.02;3.13;;;;;;;-144.48;100.00;62369.91;5035661;28;20070;-67
2023/07/23 03:20:41;;;;;;;7.65;3.53;;;;;;;-144.48;100.00;62369.91;5062523;22;20056;-66
2023/07/23 03:23:06;;;;;;;8.48;3.05;;;;;;;-144.48;100.00;62369.91;5049616;28;20040;-67
2023/07/23 03:25:32;;;;;;;8.00;3.40;;;;;;;-144.48;100.00;62369.91;5049509;28;20053;-63
2023/07/23 03:27:59;;;;;;;8.98;2.92;;;;;;;-144.48;100.00;62369.91;5049413;28;20029;-66
2023/07/23 03:30:25;;;;;;;6.80;3.10;;;;;;;-144.48;100.00;62369.91;5039665;28;20022;-67
2023/07/23 03:32:52;;;;;;;6.45;2.80;;;;;;;-144.48;100.00;62369.91;5030377;28;20075;-67
2023/07/23 03:35:18;;;;;;;8.80;2.70;;;;;;;-144.48;100.00;62369.91;5033112;28;20029;-64
2023/07/23 03:37:44;;;;;;;11.15;3.15;;;;;;;-144.48;100.00;62369.91;5047145;28;20494;-67
2023/07/23 03:40:09;;;;;;;7.90;3.35;;;;;;;-144.48;100.00;62369.91;5039002;28;20056;-66
2023/07/23 03:42:35;;;;;;;8.45;3.13;;;;;;;-144.48;100.00;62369.91;5025693;28;20414;-67
2023/07/23 03:45:00;;;;;;;7.60;3.25;;;;;;;-144.48;100.00;62369.91;5039743;28;20147;-67
2023/07/23 03:47:25;;;;;;;8.32;2.97;;;;;;;-144.48;100.00;62369.91;5036494;28;20390;-66
2023/07/23 03:49:51;;;;;;;4.80;2.55;;;;;;;-144.48;100.00;62369.91;5038119;28;20099;-67
2023/07/23 03:52:17;;;;;;;6.43;3.20;;;;;;;-144.48;100.00;62369.91;5042329;28;20030;-68
2023/07/23 03:54:42;;;;;;;8.55;3.83;;;;;;;-144.48;100.00;62369.91;5039970;28;20029;-67
2023/07/23 03:57:08;;;;;;;14.38;3.47;;;;;;;-144.48;100.00;62369.91;5036444;28;20609;-63
2023/07/23 03:59:46;;;;;;;5.90;2.83;;;;;;;-144.48;100.00;62369.91;5038114;28;20037;-66
2023/07/23 04:02:12;;;;;;;16.75;3.38;;;;;;;-144.48;100.00;62369.91;5043530;28;20013;-65
2023/07/23 04:04:38;;;;;;;6.63;3.08;;;;;;;-144.48;100.00;62369.91;5040899;28;20052;-67
2023/07/23 04:07:05;;;;;;;7.95;3.45;;;;;;;-144.48;100.00;62369.91;5017281;28;20021;-66
2023/07/23 04:09:30;;;;;;;8.88;3.75;;;;;;;-144.48;100.00;62369.91;5039296;28;20420;-67
2023/07/23 04:11:56;;;;;;;7.57;3.40;;;;;;;-144.48;100.00;62369.91;5042187;28;20112;-67
2023/07/23 04:14:22;;;;;;;8.45;3.45;;;;;;;-144.48;100.00;62369.91;5035789;28;20052;-67
2023/07/23 04:16:48;;;;;;;7.60;3.22;;;;;;;-144.48;100.00;62369.91;5042915;28;20018;-66
2023/07/23 04:19:13;;;;;;;8.85;3.90;;;;;;;-144.48;100.00;62369.91;5041646;28;20059;-67
2023/07/23 04:21:39;;;;;;;7.97;3.55;;;;;;;-144.48;100.00;62369.91;5035800;28;20025;-65
2023/07/23 04:24:05;;;;;;;9.40;3.50;;;;;;;-144.48;100.00;62369.91;5036523;28;20032;-67
2023/07/23 04:26:30;;;;;;;7.20;3.05;;;;;;;-144.48;100.00;62369.91;5042575;28;20490;-66
2023/07/23 04:28:56;;;;;;;8.73;3.53;;;;;;;-144.48;100.00;62369.91;5041043;28;20021;-68
2023/07/23 04:31:22;;;;;;;10.18;4.05;;;;;;;-144.48;100.00;62369.91;5032927;28;20056;-66
2023/07/23 04:33:48;;;;;;;9.48;3.03;;;;;;;-144.48;100.00;62369.91;5016450;28;20392;-66
2023/07/23 04:36:14;;;;;;;6.15;3.15;;;;;;;-144.48;100.00;62369.91;5041154;28;20102;-68
2023/07/23 04:38:41;;;;;;;8.30;3.55;;;;;;;-144.48;100.00;62369.91;5041081;28;20029;-67
2023/07/23 04:41:08;;;;;;;6.55;3.22;;;;;;;-144.48;100.00;62369.91;5021771;28;20122;-66
2023/07/23 04:43:35;;;;;;;6.82;3.38;;;;;;;-144.48;100.00;62369.91;5040489;28;20021;-64
2023/07/23 04:46:01;;;;;;;7.03;3.58;;;;;;;-144.48;100.00;62369.91;5046580;28;20052;-67
2023/07/23 04:48:26;;;;;;;11.85;3.22;;;;;;;-144.48;100.00;62369.91;5045165;28;20052;-66
2023/07/23 04:51:01;;;;;;;8.57;3.03;;;;;;;-144.48;100.00;62369.91;5039607;28;20092;-63
2023/07/23 04:53:27;;;;;;;8.77;3.13;;;;;;;-144.48;100.00;62369.91;5039308;28;20368;-67
2023/07/23 04:55:54;;;;;;;6.28;3.17;;;;;;;-144.48;100.00;62369.91;5045743;28;20035;-68
2023/07/23 04:58:20;;;;;;;8.30;3.92;;;;;;;-144.48;100.00;62369.91;5045988;28;20025;-67
2023/07/23 05:00:46;;;;;;;8.13;3.92;;;;;;;-144.48;100.00;62369.91;5039783;28;20024;-67
2023/07/23 05:03:11;;;;;;;7.03;3.17;;;;;;;-144.48;100.00;62369.91;5040018;28;20030;-68
2023/07/23 05:05:42;;;;;;;9.45;3.17;;;;;;;-144.48;100.00;62369.91;5045746;28;20031;-66
2023/07/23 05:08:08;;;;;;;9.63;3.28;;;;;;;-144.48;100.00;62369.91;5041146;28;20184;-66
2023/07/23 05:10:34;;;;;;;7.93;3.55;;;;;;;-144.48;100.00;62369.91;5041072;28;20025;-65
2023/07/23 05:12:59;;;;;;;9.02;3.42;;;;;;;-144.48;100.00;62369.91;5045709;28;20497;-67
2023/07/23 05:15:25;;;;;;;7.50;3.65;;;;;;;-144.48;100.00;62369.91;5020991;28;20025;-66
2023/07/23 05:17:50;;;;;;;8.15;3.78;;;;;;;-144.48;100.00;62369.91;5038806;28;20029;-67
2023/07/23 05:20:16;;;;;;;5.63;3.13;;;;;;;-144.48;100.00;62369.91;5045390;28;20025;-67
2023/07/23 05:22:41;;;;;;;8.90;3.20;;;;;;;-144.48;100.00;62369.91;5045848;28;20459;-67
2023/07/23 05:25:08;;;;;;;7.70;3.55;;;;;;;-144.48;100.00;62369.91;5025106;28;20086;-67
2023/07/23 05:27:33;;;;;;;6.93;3.85;;;;;;;-144.48;100.00;62369.91;5021502;28;20033;-65
2023/07/23 05:29:59;;;;;;;7.03;3.10;;;;;;;-144.48;100.00;62369.91;5025714;28;20108;-67
2023/07/23 05:32:25;;;;;;;5.50;2.75;;;;;;;-144.48;100.00;62369.91;5035979;28;20060;-67
2023/07/23 05:34:50;;;;;;;7.60;3.50;;;;;;;-144.48;100.00;62369.91;5035101;28;20029;-64
2023/07/23 05:37:16;;;;;;;7.85;3.53;;;;;;;-144.48;100.00;62369.91;5045309;28;20090;-67
2023/07/23 05:39:41;;;;;;;6.18;3.13;;;;;;;-144.48;100.00;62369.91;5032328;28;20034;-67
2023/07/23 05:42:07;;;;;;;11.15;3.63;;;;;;;-144.48;100.00;62369.91;5033193;28;20029;-67
2023/07/23 05:44:32;;;;;;;7.47;3.40;;;;;;;-144.48;100.00;62369.91;5043691;28;20375;-67
2023/07/23 05:46:58;;;;;;;7.30;3.30;;;;;;;-144.48;100.00;62369.91;5045991;28;20025;-67
2023/07/23 05:49:24;;;;;;;8.35;3.60;;;;;;;-144.48;100.00;62369.91;5039052;28;20025;-64
2023/07/23 05:51:50;;;;;;;7.50;3.08;;;;;;;-144.48;100.00;62369.91;5037384;28;20140;-66
2023/07/23 05:54:16;;;;;;;7.25;3.40;;;;;;;-144.48;100.00;62369.91;5044137;28;20101;-67
2023/07/23 05:56:41;;;;;;;9.88;4.18;;;;;;;-144.48;100.00;62369.91;5045019;28;20071;-66
2023/07/23 05:59:06;;;;;;;8.60;3.15;;;;;;;-144.48;100.00;62369.91;5038495;28;20021;-67
2023/07/23 06:01:32;;;;;;;7.78;3.38;;;;;;;-144.48;100.00;62369.91;5038583;28;20044;-65
2023/07/23 06:03:57;;;;;;;5.90;3.03;;;;;;;-144.48;100.00;62369.91;5030776;28;20029;-68
2023/07/23 06:06:23;;;;;;;6.50;2.92;;;;;;;-144.48;100.00;62369.91;5032096;28;20029;-66
2023/07/23 06:08:48;;;;;;;5.40;2.90;;;;;;;-144.48;100.00;62369.91;5028526;28;20108;-66
2023/07/23 06:11:14;;;;;;;10.23;3.53;;;;;;;-144.48;100.00;62369.91;5031642;28;20376;-67
2023/07/23 06:13:39;;;;;;;10.05;3.38;;;;;;;-144.48;100.00;62369.91;5031054;28;20029;-66
2023/07/23 06:16:05;;;;;;;7.43;3.13;;;;;;;-144.48;100.00;62369.91;5031650;28;20115;-68
2023/07/23 06:18:30;;;;;;;6.95;3.28;;;;;;;-144.48;100.00;62369.91;5031715;28;20025;-67
2023/07/23 06:20:55;;;;;;;7.45;3.50;;;;;;;-144.48;100.00;62369.91;5030934;28;20037;-67
2023/07/23 06:23:21;;;;;;;7.32;3.35;;;;;;;-144.48;100.00;62369.91;5030402;28;20127;-68
2023/07/23 06:25:53;;;;;;;11.80;3.25;;;;;;;-144.48;100.00;62369.91;5031110;28;20044;-66
2023/07/23 06:28:19;;;;;;;7.90;3.03;;;;;;;-144.48;100.00;62369.91;5031029;28;20060;-64
2023/07/23 06:30:44;;;;;;;7.53;3.35;;;;;;;-144.48;100.00;62369.91;5031039;28;20118;-65
2023/07/23 06:33:09;;;;;;;9.38;3.10;;;;;;;-144.48;100.00;62369.91;5030262;28;20028;-68
2023/07/23 06:35:37;;;;;;;8.38;3.25;;;;;;;-144.48;100.00;62369.91;5034416;28;20072;-68
2023/07/23 06:38:03;;;;;;;7.47;3.55;;;;;;;-144.48;100.00;62369.91;5050344;28;20039;-65
2023/07/23 06:40:28;;;;;;;6.38;3.42;;;;;;;-144.48;100.00;62369.91;5038607;28;20021;-66
2023/07/23 06:42:54;;;;;;;6.32;3.03;;;;;;;-144.48;100.00;62369.91;5044268;28;20033;-65
2023/07/23 06:45:19;;;;;;;7.78;3.40;;;;;;;-144.48;100.00;62369.91;5042797;28;20021;-66
2023/07/23 06:47:45;;;;;;;6.50;3.08;;;;;;;-144.48;100.00;62369.91;5037895;28;20028;-68
2023/07/23 06:50:10;;;;;;;4.93;2.58;;;;;;;-144.48;100.00;62369.91;5037120;28;20075;-67
2023/07/23 06:52:35;;;;;;;8.90;2.90;;;;;;;-144.48;100.00;62369.91;5043426;28;20026;-67
2023/07/23 06:55:01;;;;;;;6.38;3.10;;;;;;;-144.48;100.00;62369.91;5042284;28;20394;-67
2023/07/23 06:57:26;;;;;;;7.53;3.20;;;;;;;-144.48;100.00;62369.91;5037268;28;20063;-67
2023/07/23 06:59:51;;;;;;;7.75;3.28;;;;;;;-144.48;100.00;62369.91;5037875;28;20017;-67
2023/07/23 07:02:17;;;;;;;7.63;2.67;;;;;;;-144.48;100.00;62369.91;5025573;28;20407;-67
2023/07/23 07:04:42;;;;;;;5.88;3.05;;;;;;;-144.48;100.00;62369.91;5041378;28;20112;-64
2023/07/23 07:07:07;;;;;;;6.22;3.13;;;;;;;-144.48;100.00;62369.91;5034798;28;20103;-66
2023/07/23 07:09:34;;;;;;;7.07;3.22;;;;;;;-144.48;100.00;62369.91;5038343;28;20049;-66
2023/07/23 07:11:59;;;;;;;8.20;2.97;;;;;;;-144.48;100.00;62369.91;5040676;28;20048;-67
2023/07/23 07:14:24;;;;;;;11.75;2.95;;;;;;;-144.48;100.00;62369.91;5037299;28;20105;-67
2023/07/23 07:16:50;;;;;;;5.95;3.00;;;;;;;-144.48;100.00;62369.91;5043725;28;20112;-67
2023/07/23 07:19:16;;;;;;;6.80;2.92;;;;;;;-144.48;100.00;62369.91;5041439;28;20116;-67
2023/07/23 07:21:42;;;;;;;6.85;2.72;;;;;;;-144.48;100.00;62369.91;5049624;28;20403;-63
2023/07/23 07:24:08;;;;;;;7.63;2.90;;;;;;;-144.48;100.00;62369.91;5049141;28;20044;-63
2023/07/23 07:26:33;;;;;;;7.65;2.97;;;;;;;-144.48;100.00;62369.91;5050130;28;20027;-68
2023/07/23 07:28:59;;;;;;;6.97;2.78;;;;;;;-144.48;100.00;62369.91;5049413;28;20111;-67
2023/07/23 07:31:24;;;;;;;10.10;2.83;;;;;;;-144.48;100.00;62369.91;5040973;28;20033;-66
2023/07/23 07:33:49;;;;;;;6.78;3.10;;;;;;;-144.48;100.00;62369.91;5028843;28;20036;-66
2023/07/23 07:36:17;;;;;;;9.02;2.90;;;;;;;-144.48;100.00;62369.91;5021276;28;20032;-68
2023/07/23 07:38:43;;;;;;;6.93;3.20;;;;;;;-144.48;100.00;62369.91;5049344;28;20402;-68
2023/07/23 07:41:08;;;;;;;7.05;2.83;;;;;;;-144.48;100.00;62369.91;5036496;28;20032;-66
2023/07/23 07:43:34;;;;;;;6.10;2.65;;;;;;;-144.48;100.00;62369.91;5036671;28;20108;-66
2023/07/23 07:46:00;;;;;;;6.03;3.03;;;;;;;-144.48;100.00;62369.91;5043003;28;20104;-67
2023/07/23 07:48:27;;;;;;;5.82;2.67;;;;;;;-144.48;100.00;62369.91;5023989;28;20453;-66
2023/07/23 07:51:00;;;;;;;6.32;2.45;;;;;;;-144.48;100.00;62369.91;5036058;28;20497;-66
2023/07/23 07:53:26;;;;;;;6.57;2.85;;;;;;;-144.48;100.00;62369.91;5035658;28;20033;-67
2023/07/23 07:55:51;;;;;;;6.55;3.15;;;;;;;-144.48;100.00;62369.91;5042192;28;20427;-67
2023/07/23 07:58:24;;;;;;;6.40;2.55;;;;;;;-144.48;100.00;62369.91;5041813;28;20431;-67
2023/07/23 08:00:50;;;;;;;6.40;2.80;;;;;;;-144.48;100.00;62369.91;5023833;28;20555;-66
2023/07/23 08:03:15;;;;;;;6.68;3.03;;;;;;;-144.48;100.00;62369.91;5035860;28;20124;-68
2023/07/23 08:05:41;;;;;;;6.60;2.92;;;;;;;-144.48;100.00;62369.91;5041226;28;20245;-67
2023/07/23 08:08:10;;;;;;;6.85;2.47;;;;;;;-144.48;100.00;62369.91;5039536;28;20398;-67
2023/07/23 08:10:35;;;;;;;6.15;2.90;;;;;;;-144.48;100.00;62369.91;5037462;28;20367;-67
2023/07/23 08:13:02;;;;;;;8.65;2.97;;;;;;;-144.48;100.00;62369.91;5043244;28;20520;-67
2023/07/23 08:15:30;;;;;;;9.00;3.58;;;;;;;-144.48;100.00;62369.91;5035603;28;20032;-67
2023/07/23 08:17:56;;;;;;;8.98;2.92;;;;;;;-144.48;100.00;62369.91;5036066;28;20112;-67
2023/07/23 08:20:22;;;;;;;6.07;3.30;;;;;;;-144.48;100.00;62369.91;5041098;28;20083;-68
2023/07/23 08:22:48;;;;;;;7.32;2.85;;;;;;;-144.48;100.00;62369.91;5042272;28;20025;-67
2023/07/23 08:25:14;;;;;;;4.60;2.65;;;;;;;-144.48;100.00;62369.91;5036480;28;20021;-63
2023/07/23 08:27:41;;;;;;;8.70;3.25;;;;;;;-144.48;100.00;62369.91;5035645;28;20028;-64
2023/07/23 08:30:08;;;;;;;5.88;2.90;;;;;;;-144.48;100.00;62369.91;5041418;28;20021;-67
2023/07/23 08:32:33;;;;;;;6.05;2.75;;;;;;;-144.48;100.00;62369.91;5029590;28;20026;-64
2023/07/23 08:34:59;;;;;;;5.60;2.67;;;;;;;-144.48;100.00;62369.91;5031874;28;20072;-67
2023/07/23 08:37:25;;;;;;;7.57;2.47;;;;;;;-144.48;100.00;62369.91;5043342;28;20372;-67
2023/07/23 08:39:50;;;;;;;5.60;2.60;;;;;;;-144.48;100.00;62369.91;5041522;28;20028;-65
2023/07/23 08:42:43;;;;;;;5.88;2.55;;;;;;;-144.48;100.00;62369.91;5042539;28;20356;-68
2023/07/23 08:45:27;;;;;;;5.40;2.50;;;;;;;-144.48;100.00;62369.91;5039509;28;20410;-68
2023/07/23 08:48:07;;;;;;;5.90;2.90;;;;;;;-144.48;100.00;62369.91;5024157;28;20025;-68
2023/07/23 08:50:33;;;;;;;7.93;2.85;;;;;;;-144.48;100.00;62369.91;5035227;28;20029;-67
2023/07/23 08:53:01;;;;;;;9.60;2.65;;;;;;;-144.48;100.00;62369.91;5039019;28;20086;-68
2023/07/23 08:55:27;;;;;;;6.68;2.45;;;;;;;-144.48;100.00;62369.91;5013578;28;20386;-68
2023/07/23 08:57:53;;;;;;;5.65;2.67;;;;;;;-144.48;100.00;62369.91;5021785;28;20025;-69
2023/07/23 09:00:19;;;;;;;5.45;2.55;;;;;;;-144.48;100.00;62369.91;5041278;28;20402;-67
2023/07/23 09:02:45;;;;;;;5.43;2.60;;;;;;;-144.48;100.00;62369.91;5038086;28;20471;-67
2023/07/23 09:05:11;;;;;;;5.22;2.72;;;;;;;-144.48;100.00;62369.91;5033314;28;20033;-67
2023/07/23 09:07:36;;;;;;;3.85;2.30;;;;;;;-144.48;100.00;62369.91;5037335;28;20029;-67
2023/07/23 09:10:02;;;;;;;6.07;2.70;;;;;;;-144.48;100.00;62369.91;5032373;28;20021;-66
2023/07/23 09:12:29;;;;;;;4.78;2.05;;;;;;;-144.48;100.00;62369.91;5041203;28;20056;-65
2023/07/23 09:14:54;;;;;;;6.20;2.28;;;;;;;-144.48;100.00;62369.91;5034339;28;20395;-67
2023/07/23 09:17:20;;;;;;;7.80;2.72;;;;;;;-144.48;100.00;62369.91;5039761;28;20021;-68
2023/07/23 09:19:47;;;;;;;7.07;2.13;;;;;;;-144.48;100.00;62369.91;5025420;28;20605;-67
2023/07/23 09:22:15;;;;;;;5.55;2.22;;;;;;;-144.48;100.00;62369.91;5038183;28;20654;-67
2023/07/23 09:24:40;;;;;;;7.05;3.08;;;;;;;-144.48;100.00;62369.91;5034604;28;20040;-65
2023/07/23 09:27:09;;;;;;;4.78;2.20;;;;;;;-144.48;100.00;62369.91;5042425;28;20154;-67
2023/07/23 09:29:35;;;;;;;;;;;;;;;-144.48;100.00;62369.91;5046115;28;20029;-66
2023/07/23 09:32:01;;;;;;;6.55;2.30;;;;;;;-144.48;100.00;62369.91;5033466;28;19960;-67
2023/07/23 09:34:26;;;;;;;5.57;2.33;;;;;;;-144.48;100.00;62369.91;5034264;28;20175;-66
2023/07/23 09:36:53;;;;;;;7.18;2.80;;;;;;;-144.48;100.00;62369.91;5042715;28;20482;-64
2023/07/23 09:39:19;;;;;;;4.50;2.10;;;;;;;-144.48;100.00;62369.91;5038419;28;20025;-66
2023/07/23 09:41:44;;;;;;;6.40;2.42;;;;;;;-144.48;100.00;62369.91;5041466;28;20021;-67
2023/07/23 09:44:12;;;;;;;3.70;2.38;;;;;;;-144.48;100.00;62369.91;5043915;28;20442;-67
2023/07/23 09:46:43;;;;;;;6.57;2.63;;;;;;;-144.48;100.00;62369.91;5042288;28;20108;-66
2023/07/23 09:49:09;;;;;;;4.43;2.22;;;;;;;-144.48;100.00;62369.91;5037683;28;20100;-65
2023/07/23 09:51:37;;;;;;;10.48;2.45;;;;;;;-144.48;100.00;62369.91;5040342;28;20116;-67
2023/07/23 09:54:03;;;;;;;8.93;2.88;;;;;;;-144.48;100.00;62369.91;5044799;28;20083;-64
2023/07/23 09:56:29;;;;;;;9.88;1.90;;;;;;;-144.48;100.00;62369.91;5044203;28;20029;-63
2023/07/23 09:58:57;;;;;;;4.68;2.15;;;;;;;-144.48;100.00;62369.91;5037204;28;20024;-68
2023/07/23 10:01:23;;;;;;;5.13;2.42;;;;;;;-144.48;100.00;62369.91;5039875;28;20040;-65
2023/07/23 10:03:49;;;;;;;4.85;2.22;;;;;;;-144.48;100.00;62369.91;5025897;28;20029;-65
2023/07/23 10:06:20;;;;;;;6.88;2.03;;;;;;;-144.48;100.00;62369.91;5043217;28;20033;-67
2023/07/23 10:08:46;;;;;;;5.75;2.03;;;;;;;-144.48;100.00;62369.91;5033025;28;20025;-67
2023/07/23 10:11:13;;;;;;;4.95;1.85;;;;;;;-144.48;100.00;62369.91;5037536;28;20029;-67
2023/07/23 10:13:41;;;;;;;4.40;1.90;;;;;;;-144.48;100.00;62369.91;5043843;28;20368;-66
2023/07/23 10:16:09;;;;;;;5.05;2.15;;;;;;;-144.48;100.00;62369.91;5044095;28;20025;-67
2023/07/23 10:18:39;;;;;;;4.20;2.05;;;;;;;-144.48;100.00;62369.91;5038284;28;20029;-63
2023/07/23 10:21:06;;;;;;;6.60;2.40;;;;;;;-144.48;100.00;62369.91;5037675;28;20040;-66
2023/07/23 10:23:32;;;;;;;8.52;4.10;;;;;;;-144.48;100.00;62369.91;5023465;28;20488;-66
2023/07/23 10:26:20;;;;;;;11.23;2.20;;;;;;;-144.48;100.00;62369.91;5038279;28;20593;-68
2023/07/23 10:28:47;;;;;;;5.05;2.38;;;;;;;-144.48;100.00;62369.91;5041023;28;20612;-65
2023/07/23 10:31:27;;;;;;;5.68;2.13;;;;;;;-144.48;100.00;62369.91;5042073;28;20028;-68
2023/07/23 10:33:53;;;;;;;6.55;2.20;;;;;;;-144.48;100.00;62369.91;5029198;28;20021;-69
2023/07/23 10:36:21;;;;;;;6.53;2.13;;;;;;;-144.48;100.00;62369.91;5040818;28;20036;-68
2023/07/23 10:39:01;;;;;;;7.50;2.05;;;;;;;-144.48;100.00;62369.91;5049840;28;20024;-68
2023/07/23 10:41:47;;;;;;;8.55;2.20;;;;;;;-144.48;100.00;62369.91;5027151;28;20040;-68
2023/07/23 10:44:22;;;;;;;6.70;2.05;;;;;;;-144.48;100.00;62369.91;5035943;28;20389;-66
2023/07/23 10:46:47;;;;;;;8.30;2.20;;;;;;;-144.48;100.00;62369.91;5038719;28;20025;-67
2023/07/23 10:49:19;;;;;;;21.60;2.35;;;;;;;-144.48;100.00;62369.91;5043824;28;20029;-66
2023/07/23 10:51:45;;;;;;;3.78;2.05;;;;;;;-144.48;100.00;62369.91;5042991;28;20055;-67
2023/07/23 10:54:11;;;;;;;3.33;1.92;;;;;;;-144.48;100.00;62369.91;5036057;28;20021;-67
2023/07/23 10:56:39;;;;;;;4.80;1.85;;;;;;;-144.48;100.00;62369.91;5037860;28;20084;-65
2023/07/23 10:59:08;;;;;;;;;;;;;;;-144.48;100.00;62369.91;5025388;28;20039;-67
2023/07/23 11:01:39;;;;;;;3.85;1.95;;;;;;;-144.48;100.00;62369.91;5043347;28;19909;-69
2023/07/23 11:04:12;;;;;;;5.10;2.08;;;;;;;-144.48;100.00;62369.91;5036723;28;20026;-65
2023/07/23 11:06:41;;;;;;;12.52;2.55;;;;;;;-144.48;100.00;62369.91;5036706;28;20219;-65